createdAt,value
2023-03-30T00:01:24.248Z,25.10
2023-03-30T00:03:56.404Z,25.10
2023-03-30T00:06:25.531Z,25.10
2023-03-30T00:08:59.550Z,25.10
2023-03-30T00:11:28.389Z,25.10
2023-03-30T00:13:57.437Z,25.20
2023-03-30T00:16:26.482Z,25.20
2023-03-30T00:18:55.490Z,25.20
2023-03-30T00:21:24.782Z,25.30
2023-03-30T00:23:53.804Z,25.30
2023-03-30T00:26:23.627Z,25.30
2023-03-30T00:28:52.636Z,25.30
2023-03-30T00:31:21.668Z,25.40
2023-03-30T00:33:50.650Z,25.40
2023-03-30T00:36:20.150Z,25.50
2023-03-30T00:38:49.601Z,25.50
2023-03-30T00:41:18.976Z,25.60
2023-03-30T00:43:58.777Z,25.60
2023-03-30T00:46:27.814Z,25.70
2023-03-30T00:49:00.238Z,25.80
2023-03-30T00:51:30.333Z,25.80
2023-03-30T00:54:07.133Z,25.90
2023-03-30T00:56:36.416Z,26.00
2023-03-30T00:59:05.630Z,26.10
2023-03-30T01:01:39.831Z,26.20
2023-03-30T01:04:11.288Z,26.30
2023-03-30T01:06:42.193Z,26.30
2023-03-30T01:09:12.160Z,26.40
2023-03-30T01:11:42.136Z,26.50
2023-03-30T01:14:14.271Z,26.60
2023-03-30T01:17:18.968Z,26.70
2023-03-30T01:20:10.212Z,26.80
2023-03-30T01:23:28.684Z,27.00
2023-03-30T01:26:22.043Z,27.10
2023-03-30T01:29:01.623Z,27.30
2023-03-30T01:31:46.645Z,27.40
2023-03-30T01:34:40.054Z,27.50
2023-03-30T01:37:51.085Z,27.60
2023-03-30T01:40:34.865Z,27.80
2023-03-30T01:43:32.951Z,28.00
2023-03-30T01:46:26.349Z,28.10
2023-03-30T01:49:13.713Z,28.30
2023-03-30T01:51:53.640Z,28.40
2023-03-30T01:54:31.500Z,28.50
2023-03-30T01:57:21.287Z,28.60
2023-03-30T02:00:32.700Z,28.80
2023-03-30T02:03:18.426Z,28.90
2023-03-30T02:05:52.232Z,29.00
2023-03-30T02:08:26.407Z,29.10
2023-03-30T02:10:57.543Z,29.20
2023-03-30T02:13:29.156Z,29.30
2023-03-30T02:16:29.173Z,29.40
2023-03-30T02:18:59.076Z,29.50
2023-03-30T02:21:29.283Z,29.60
2023-03-30T02:23:59.363Z,29.70
2023-03-30T02:26:30.695Z,29.70
2023-03-30T02:29:00.400Z,29.80
2023-03-30T02:31:29.494Z,29.80
2023-03-30T02:34:15.874Z,29.90
2023-03-30T02:37:01.858Z,30.00
2023-03-30T02:39:37.121Z,30.10
2023-03-30T02:42:28.430Z,30.20
2023-03-30T02:45:20.508Z,30.30
2023-03-30T02:48:31.837Z,30.30
2023-03-30T02:51:04.307Z,30.30
2023-03-30T02:53:43.362Z,30.40
2023-03-30T02:56:48.742Z,30.40
2023-03-30T02:59:45.044Z,30.40
2023-03-30T03:02:21.462Z,30.40
2023-03-30T03:04:54.109Z,30.40
2023-03-30T03:07:24.216Z,30.40
2023-03-30T03:09:53.416Z,30.50
2023-03-30T03:12:22.431Z,30.50
2023-03-30T03:14:51.543Z,30.60
2023-03-30T03:17:23.561Z,30.60
2023-03-30T03:19:52.820Z,30.60
2023-03-30T03:22:22.136Z,30.60
2023-03-30T03:24:51.219Z,30.60
2023-03-30T03:27:22.015Z,30.60
2023-03-30T03:29:53.982Z,30.60
2023-03-30T03:32:23.025Z,30.70
2023-03-30T03:34:52.048Z,30.80
2023-03-30T03:37:21.063Z,30.90
2023-03-30T03:39:52.890Z,31.00
2023-03-30T03:42:22.216Z,31.10
2023-03-30T03:44:51.252Z,31.20
2023-03-30T03:47:20.581Z,31.30
2023-03-30T03:49:49.597Z,31.50
2023-03-30T03:52:18.634Z,31.60
2023-03-30T03:54:47.741Z,31.80
2023-03-30T03:57:17.159Z,31.80
2023-03-30T03:59:46.160Z,31.90
2023-03-30T04:02:15.107Z,32.10
2023-03-30T04:04:47.134Z,32.20
2023-03-30T04:07:16.151Z,32.40
2023-03-30T04:09:45.138Z,32.50
2023-03-30T04:12:14.173Z,32.60
2023-03-30T04:14:43.136Z,32.70
2023-03-30T04:17:16.138Z,32.80
2023-03-30T04:19:46.987Z,33.00
2023-03-30T04:22:15.948Z,33.20
2023-03-30T04:24:45.873Z,33.40
2023-03-30T04:27:18.152Z,33.60
2023-03-30T04:29:47.266Z,33.70
2023-03-30T04:32:22.104Z,33.70
2023-03-30T04:34:55.799Z,33.70
2023-03-30T04:37:31.384Z,33.70
2023-03-30T04:40:09.427Z,33.60
2023-03-30T04:42:41.080Z,33.70
2023-03-30T04:45:11.538Z,33.70
2023-03-30T04:47:40.623Z,33.80
2023-03-30T04:50:10.380Z,33.80
2023-03-30T04:52:39.430Z,34.00
2023-03-30T04:55:09.994Z,34.00
2023-03-30T04:57:39.256Z,34.20
2023-03-30T05:00:10.610Z,34.40
2023-03-30T05:02:39.736Z,34.60
2023-03-30T05:05:09.187Z,34.80
2023-03-30T05:07:38.428Z,34.80
2023-03-30T05:10:07.823Z,34.90
2023-03-30T05:12:37.034Z,35.00
2023-03-30T05:15:06.571Z,35.20
2023-03-30T05:17:35.962Z,35.40
2023-03-30T05:20:09.492Z,35.60
2023-03-30T05:22:38.844Z,35.60
2023-03-30T05:25:09.242Z,35.70
2023-03-30T05:27:38.298Z,35.80
2023-03-30T05:30:09.440Z,36.00
2023-03-30T05:32:38.553Z,36.20
2023-03-30T05:35:08.102Z,36.40
2023-03-30T05:37:37.197Z,36.40
2023-03-30T05:40:15.487Z,36.40
2023-03-30T05:42:44.448Z,36.60
2023-03-30T05:45:13.736Z,36.60
2023-03-30T05:47:42.854Z,36.60
2023-03-30T05:50:12.736Z,36.70
2023-03-30T05:52:41.819Z,36.80
2023-03-30T05:55:11.013Z,36.80
2023-03-30T05:57:42.802Z,36.80
2023-03-30T06:00:14.465Z,36.90
2023-03-30T06:02:43.558Z,37.00
2023-03-30T06:05:13.377Z,37.00
2023-03-30T06:07:42.512Z,37.00
2023-03-30T06:10:11.827Z,37.00
2023-03-30T06:12:41.354Z,37.00
2023-03-30T06:15:10.918Z,37.10
2023-03-30T06:17:40.212Z,37.20
2023-03-30T06:20:13.614Z,37.30
2023-03-30T06:22:43.153Z,37.30
2023-03-30T06:25:12.221Z,37.40
2023-03-30T06:27:44.163Z,37.30
2023-03-30T06:30:14.735Z,37.30
2023-03-30T06:32:43.845Z,37.30
2023-03-30T06:35:14.704Z,37.20
2023-03-30T06:37:43.934Z,37.10
2023-03-30T06:40:16.372Z,37.00
2023-03-30T06:42:46.188Z,37.10
2023-03-30T06:45:15.990Z,37.20
2023-03-30T06:47:45.061Z,37.20
2023-03-30T06:50:14.596Z,37.40
2023-03-30T06:52:43.671Z,37.50
2023-03-30T06:55:12.679Z,37.60
2023-03-30T06:57:41.703Z,37.60
2023-03-30T07:00:15.173Z,37.70
2023-03-30T07:02:44.723Z,37.80
2023-03-30T07:05:16.913Z,37.80
2023-03-30T07:07:47.746Z,37.80
2023-03-30T07:10:17.446Z,37.80
2023-03-30T07:12:47.097Z,37.80
2023-03-30T07:15:19.923Z,37.80
2023-03-30T07:17:48.945Z,37.80
2023-03-30T07:20:18.430Z,37.80
2023-03-30T07:22:47.566Z,37.80
2023-03-30T07:25:16.810Z,37.80
2023-03-30T07:27:46.186Z,37.90
2023-03-30T07:30:21.837Z,37.80
2023-03-30T07:32:53.079Z,37.80
2023-03-30T07:35:22.982Z,37.80
2023-03-30T07:37:52.229Z,37.80
2023-03-30T07:40:25.227Z,37.90
2023-03-30T07:42:53.989Z,37.90
2023-03-30T07:45:22.934Z,37.90
2023-03-30T07:47:52.143Z,37.80
2023-03-30T07:50:21.274Z,37.80
2023-03-30T07:52:52.126Z,37.70
2023-03-30T07:55:24.006Z,37.70
2023-03-30T07:57:53.753Z,37.80
2023-03-30T08:00:23.472Z,37.80
2023-03-30T08:02:55.250Z,37.80
2023-03-30T08:05:24.323Z,37.90
2023-03-30T08:07:53.360Z,37.80
2023-03-30T08:10:22.381Z,37.80
2023-03-30T08:12:54.471Z,37.70
2023-03-30T08:15:23.594Z,37.70
2023-03-30T08:17:52.581Z,37.60
2023-03-30T08:20:23.861Z,37.60
2023-03-30T08:22:54.948Z,37.50
2023-03-30T08:25:23.963Z,37.50
2023-03-30T08:27:52.935Z,37.50
2023-03-30T08:30:22.315Z,37.50
2023-03-30T08:32:51.917Z,37.50
2023-03-30T08:35:21.631Z,37.50
2023-03-30T08:37:53.782Z,37.50
2023-03-30T08:40:23.891Z,37.50
2023-03-30T08:43:32.211Z,37.40
2023-03-30T08:46:05.594Z,37.30
2023-03-30T08:48:41.941Z,37.20
2023-03-30T08:51:29.009Z,37.10
2023-03-30T08:54:09.080Z,37.10
2023-03-30T08:56:41.592Z,37.00
2023-03-30T08:59:25.982Z,37.10
2023-03-30T09:02:06.168Z,37.00
2023-03-30T09:04:59.720Z,37.00
2023-03-30T09:07:34.208Z,36.90
2023-03-30T09:10:03.520Z,36.90
2023-03-30T09:12:49.051Z,36.80
2023-03-30T09:15:22.454Z,36.80
2023-03-30T09:18:12.567Z,36.80
2023-03-30T09:20:44.282Z,36.80
2023-03-30T09:23:19.406Z,36.80
2023-03-30T09:26:06.709Z,36.80
2023-03-30T09:28:54.730Z,36.70
2023-03-30T09:31:35.765Z,36.70
2023-03-30T09:34:26.101Z,36.70
2023-03-30T09:37:04.388Z,36.60
2023-03-30T09:39:36.635Z,36.60
2023-03-30T09:42:17.609Z,36.60
2023-03-30T09:45:18.333Z,36.50
2023-03-30T09:47:47.859Z,36.40
2023-03-30T09:50:38.333Z,36.30
2023-03-30T09:53:18.810Z,36.30
2023-03-30T09:56:35.185Z,36.20
2023-03-30T09:59:37.511Z,36.20
2023-03-30T10:02:17.627Z,36.10
2023-03-30T10:04:58.862Z,36.00
2023-03-30T10:07:38.971Z,35.90
2023-03-30T10:10:22.262Z,35.80
2023-03-30T10:12:52.485Z,35.80
2023-03-30T10:15:24.970Z,35.70
2023-03-30T10:17:57.489Z,35.60
2023-03-30T10:20:37.804Z,35.50
2023-03-30T10:23:20.033Z,35.40
2023-03-30T10:25:51.418Z,35.30
2023-03-30T10:28:38.773Z,35.30
2023-03-30T10:31:17.249Z,35.20
2023-03-30T10:33:47.180Z,35.20
2023-03-30T10:36:20.598Z,35.10
2023-03-30T10:38:50.006Z,35.10
2023-03-30T10:41:24.010Z,35.10
2023-03-30T10:43:54.210Z,35.10
2023-03-30T10:46:26.119Z,35.00
2023-03-30T10:49:40.738Z,35.00
2023-03-30T10:52:30.329Z,35.00
2023-03-30T10:55:18.421Z,34.90
2023-03-30T10:58:06.046Z,34.80
2023-03-30T11:01:16.261Z,34.80
2023-03-30T11:03:51.634Z,34.80
2023-03-30T11:06:32.907Z,34.70
2023-03-30T11:09:06.111Z,34.60
2023-03-30T11:11:46.265Z,34.60
2023-03-30T11:14:34.234Z,34.50
2023-03-30T11:17:12.256Z,34.50
2023-03-30T11:19:52.427Z,34.40
2023-03-30T11:22:39.805Z,34.40
2023-03-30T11:25:41.115Z,34.30
2023-03-30T11:28:34.652Z,34.20
2023-03-30T11:31:24.345Z,34.20
2023-03-30T11:33:59.983Z,34.10
2023-03-30T11:36:52.102Z,34.00
2023-03-30T11:39:32.177Z,33.90
2023-03-30T11:42:24.456Z,33.70
2023-03-30T11:44:53.603Z,33.70
2023-03-30T11:47:50.381Z,33.60
2023-03-30T11:50:27.520Z,33.40
2023-03-30T11:53:08.788Z,33.30
2023-03-30T11:56:08.995Z,33.20
2023-03-30T11:58:55.818Z,33.20
2023-03-30T12:01:47.644Z,33.10
2023-03-30T12:04:33.346Z,33.00
2023-03-30T12:07:12.726Z,32.90
2023-03-30T12:09:56.152Z,32.90
2023-03-30T12:12:37.678Z,32.90
2023-03-30T12:15:12.524Z,32.80
2023-03-30T12:17:57.719Z,32.70
2023-03-30T12:20:47.924Z,32.70
2023-03-30T12:23:34.767Z,32.60
2023-03-30T12:26:11.752Z,32.60
2023-03-30T12:29:06.493Z,32.50
2023-03-30T12:32:22.856Z,32.50
2023-03-30T12:34:52.554Z,32.40
2023-03-30T12:37:49.377Z,32.40
2023-03-30T12:40:23.404Z,32.40
2023-03-30T12:43:09.933Z,32.30
2023-03-30T12:46:04.231Z,32.30
2023-03-30T12:48:44.746Z,32.20
2023-03-30T12:51:35.021Z,32.20
2023-03-30T12:54:28.483Z,32.10
2023-03-30T12:57:09.430Z,32.10
2023-03-30T13:00:08.623Z,32.10
2023-03-30T13:03:06.594Z,32.00
2023-03-30T13:05:40.245Z,32.00
2023-03-30T13:08:10.450Z,31.90
2023-03-30T13:10:43.962Z,31.90
2023-03-30T13:13:25.351Z,31.90
2023-03-30T13:15:56.404Z,31.80
2023-03-30T13:18:33.310Z,31.80
2023-03-30T13:21:21.391Z,31.80
2023-03-30T13:24:23.789Z,31.70
2023-03-30T13:26:53.033Z,31.70
2023-03-30T13:29:25.423Z,31.60
2023-03-30T13:32:00.371Z,31.60
2023-03-30T13:35:05.291Z,31.60
2023-03-30T13:37:47.867Z,31.50
2023-03-30T13:40:43.804Z,31.50
2023-03-30T13:43:22.701Z,31.40
2023-03-30T13:46:16.872Z,31.40
2023-03-30T13:48:46.647Z,31.40
2023-03-30T13:51:19.913Z,31.30
2023-03-30T13:54:17.192Z,31.30
2023-03-30T13:56:51.019Z,31.20
2023-03-30T13:59:26.093Z,31.20
2023-03-30T14:01:58.794Z,31.20
2023-03-30T14:04:32.201Z,31.20
2023-03-30T14:07:19.762Z,31.20
2023-03-30T14:10:08.347Z,31.10
2023-03-30T14:12:39.753Z,31.10
2023-03-30T14:15:24.977Z,31.10
2023-03-30T14:17:57.316Z,31.10
2023-03-30T14:21:02.270Z,31.00
2023-03-30T14:23:36.780Z,31.00
2023-03-30T14:26:14.374Z,30.90
2023-03-30T14:28:43.822Z,30.90
2023-03-30T14:31:21.225Z,30.80
2023-03-30T14:33:50.745Z,30.90
2023-03-30T14:36:22.028Z,30.80
2023-03-30T14:38:55.803Z,30.80
2023-03-30T14:41:31.413Z,30.80
2023-03-30T14:44:09.569Z,30.80
2023-03-30T14:46:45.174Z,30.80
2023-03-30T14:49:30.433Z,30.80
2023-03-30T14:52:10.806Z,30.70
2023-03-30T14:54:44.753Z,30.70
2023-03-30T14:57:21.618Z,30.70
2023-03-30T14:59:54.654Z,30.60
2023-03-30T15:02:30.134Z,30.60
2023-03-30T15:05:00.470Z,30.60
2023-03-30T15:07:34.112Z,30.50
2023-03-30T15:10:03.198Z,30.50
2023-03-30T15:12:41.800Z,30.50
2023-03-30T15:15:14.201Z,30.50
2023-03-30T15:17:49.075Z,30.40
2023-03-30T15:20:18.999Z,30.40
2023-03-30T15:22:52.986Z,30.40
2023-03-30T15:25:28.802Z,30.40
2023-03-30T15:28:28.264Z,30.30
2023-03-30T15:30:57.258Z,30.30
2023-03-30T15:33:41.243Z,30.30
2023-03-30T15:36:19.428Z,30.30
2023-03-30T15:38:59.876Z,30.30
2023-03-30T15:41:53.217Z,30.20
2023-03-30T15:44:23.861Z,30.20
2023-03-30T15:46:56.588Z,30.10
2023-03-30T15:49:32.573Z,30.10
2023-03-30T15:52:05.297Z,30.10
2023-03-30T15:54:51.802Z,30.10
2023-03-30T15:57:27.998Z,30.00
2023-03-30T16:00:07.767Z,30.00
2023-03-30T16:02:58.792Z,30.00
2023-03-30T16:05:30.588Z,30.00
2023-03-30T16:07:59.802Z,29.90
2023-03-30T16:10:34.420Z,29.90
2023-03-30T16:13:03.592Z,29.90
2023-03-30T16:15:34.622Z,29.80
2023-03-30T16:18:03.725Z,29.80
2023-03-30T16:20:34.190Z,29.80
2023-03-30T16:23:03.187Z,29.70
2023-03-30T16:25:44.197Z,29.70
2023-03-30T16:28:18.978Z,29.70
2023-03-30T16:30:51.069Z,29.60
2023-03-30T16:33:20.091Z,29.60
2023-03-30T16:35:49.132Z,29.60
2023-03-30T16:38:19.356Z,29.50
2023-03-30T16:40:57.858Z,29.50
2023-03-30T16:43:28.398Z,29.50
2023-03-30T16:45:57.421Z,29.50
2023-03-30T16:48:28.118Z,29.40
2023-03-30T16:50:58.227Z,29.40
2023-03-30T16:53:27.315Z,29.40
2023-03-30T16:55:56.362Z,29.40
2023-03-30T16:58:25.363Z,29.30
2023-03-30T17:01:02.182Z,29.30
2023-03-30T17:03:32.734Z,29.30
2023-03-30T17:06:01.756Z,29.30
2023-03-30T17:08:31.052Z,29.20
2023-03-30T17:11:02.772Z,29.20
2023-03-30T17:13:33.115Z,29.20
2023-03-30T17:16:03.967Z,29.20
2023-03-30T17:18:33.821Z,29.10
2023-03-30T17:21:04.175Z,29.10
2023-03-30T17:23:34.469Z,29.10
2023-03-30T17:26:04.586Z,29.00
2023-03-30T17:28:36.644Z,29.00
2023-03-30T17:31:09.847Z,28.90
2023-03-30T17:33:40.233Z,28.90
2023-03-30T17:36:24.899Z,28.90
2023-03-30T17:38:54.849Z,28.90
2023-03-30T17:41:23.846Z,28.80
2023-03-30T17:43:52.851Z,28.80
2023-03-30T17:46:22.408Z,28.80
2023-03-30T17:48:52.375Z,28.70
2023-03-30T17:51:21.804Z,28.70
2023-03-30T17:53:50.795Z,28.70
2023-03-30T17:56:19.745Z,28.70
2023-03-30T17:58:50.676Z,28.60
2023-03-30T18:01:19.719Z,28.60
2023-03-30T18:03:48.803Z,28.60
2023-03-30T18:06:18.245Z,28.60
2023-03-30T18:08:47.343Z,28.60
2023-03-30T18:11:16.509Z,28.50
2023-03-30T18:13:45.524Z,28.50
2023-03-30T18:16:14.846Z,28.50
2023-03-30T18:18:43.897Z,28.50
2023-03-30T18:21:13.130Z,28.50
2023-03-30T18:23:42.700Z,28.50
2023-03-30T18:26:14.619Z,28.50
2023-03-30T18:28:47.575Z,28.50
2023-03-30T18:31:16.767Z,28.50
2023-03-30T18:33:45.811Z,28.50
2023-03-30T18:36:15.812Z,28.50
2023-03-30T18:38:45.373Z,28.40
2023-03-30T18:41:14.799Z,28.40
2023-03-30T18:43:43.907Z,28.40
2023-03-30T18:46:14.767Z,28.40
2023-03-30T18:48:43.952Z,28.40
2023-03-30T18:51:13.928Z,28.40
2023-03-30T18:53:43.008Z,28.40
2023-03-30T18:56:14.841Z,28.30
2023-03-30T18:58:44.026Z,28.30
2023-03-30T19:01:14.410Z,28.30
2023-03-30T19:03:44.397Z,28.30
2023-03-30T19:06:26.845Z,28.30
2023-03-30T19:08:56.360Z,28.20
2023-03-30T19:11:27.973Z,28.20
2023-03-30T19:13:57.053Z,28.10
2023-03-30T19:16:26.040Z,28.10
2023-03-30T19:18:55.003Z,28.10
2023-03-30T19:21:24.649Z,28.10
2023-03-30T19:23:53.817Z,28.00
2023-03-30T19:26:23.279Z,28.10
2023-03-30T19:28:52.276Z,28.00
2023-03-30T19:31:21.289Z,28.00
2023-03-30T19:33:50.303Z,28.00
2023-03-30T19:36:19.383Z,28.00
2023-03-30T19:38:50.584Z,28.00
2023-03-30T19:41:19.672Z,28.00
2023-03-30T19:43:51.288Z,27.90
2023-03-30T19:46:20.416Z,27.90
2023-03-30T19:48:49.431Z,27.90
2023-03-30T19:51:20.183Z,27.90
2023-03-30T19:53:49.239Z,27.90
2023-03-30T19:56:18.491Z,27.90
2023-03-30T19:58:47.547Z,27.80
2023-03-30T20:01:16.870Z,27.80
2023-03-30T20:03:45.947Z,27.80
2023-03-30T20:06:15.105Z,27.80
2023-03-30T20:08:44.683Z,27.80
2023-03-30T20:11:14.038Z,27.70
2023-03-30T20:13:46.976Z,27.70
2023-03-30T20:16:23.597Z,27.70
2023-03-30T20:18:54.868Z,27.60
2023-03-30T20:21:25.405Z,27.60
2023-03-30T20:23:54.447Z,27.60
2023-03-30T20:26:23.910Z,27.50
2023-03-30T20:28:52.855Z,27.50
2023-03-30T20:31:21.845Z,27.50
2023-03-30T20:33:51.614Z,27.50
2023-03-30T20:36:21.853Z,27.40
2023-03-30T20:38:53.704Z,27.40
2023-03-30T20:41:26.107Z,27.40
2023-03-30T20:43:57.437Z,27.40
2023-03-30T20:46:27.257Z,27.30
2023-03-30T20:48:56.255Z,27.30
2023-03-30T20:51:25.789Z,27.30
2023-03-30T20:53:54.736Z,27.30
2023-03-30T20:56:24.718Z,27.30
2023-03-30T20:58:53.695Z,27.20
2023-03-30T21:01:29.531Z,27.20
2023-03-30T21:04:00.569Z,27.20
2023-03-30T21:06:31.544Z,27.20
2023-03-30T21:09:03.481Z,27.20
2023-03-30T21:11:36.374Z,27.10
2023-03-30T21:14:05.356Z,27.10
2023-03-30T21:16:35.172Z,27.10
2023-03-30T21:19:04.325Z,27.10
2023-03-30T21:21:35.015Z,27.10
2023-03-30T21:24:04.073Z,27.10
2023-03-30T21:26:33.225Z,27.10
2023-03-30T21:29:02.316Z,27.10
2023-03-30T21:31:31.489Z,27.00
2023-03-30T21:34:02.065Z,27.00
2023-03-30T21:36:31.170Z,27.00
2023-03-30T21:39:02.014Z,27.00
2023-03-30T21:41:31.453Z,27.00
2023-03-30T21:44:00.433Z,27.00
2023-03-30T21:46:29.642Z,27.00
2023-03-30T21:48:58.946Z,26.90
2023-03-30T21:51:31.233Z,26.90
2023-03-30T21:54:00.907Z,26.90
2023-03-30T21:56:31.475Z,26.80
2023-03-30T21:59:01.079Z,26.80
2023-03-30T22:01:30.434Z,26.80
2023-03-30T22:03:59.627Z,26.70
2023-03-30T22:06:28.796Z,26.70
2023-03-30T22:08:57.828Z,26.70
2023-03-30T22:11:28.125Z,26.70
2023-03-30T22:13:57.087Z,26.70
2023-03-30T22:16:29.383Z,26.60
2023-03-30T22:18:58.536Z,26.60
2023-03-30T22:21:35.524Z,26.60
2023-03-30T22:24:08.872Z,26.60
2023-03-30T22:26:37.961Z,26.60
2023-03-30T22:29:07.929Z,26.60
2023-03-30T22:31:37.204Z,26.50
2023-03-30T22:34:06.829Z,26.50
2023-03-30T22:36:36.091Z,26.50
2023-03-30T22:39:05.741Z,26.50
2023-03-30T22:41:34.726Z,26.50
2023-03-30T22:44:03.929Z,26.40
2023-03-30T22:46:32.962Z,26.40
2023-03-30T22:49:02.629Z,26.40
2023-03-30T22:51:31.664Z,26.30
2023-03-30T22:54:01.667Z,26.40
2023-03-30T22:56:31.638Z,26.30
2023-03-30T22:59:02.508Z,26.30
2023-03-30T23:01:33.218Z,26.30
2023-03-30T23:04:02.809Z,26.20
2023-03-30T23:06:35.073Z,26.20
2023-03-30T23:09:05.681Z,26.20
2023-03-30T23:11:35.351Z,26.20
2023-03-30T23:14:07.298Z,26.20
2023-03-30T23:16:37.014Z,26.20
2023-03-30T23:19:07.956Z,26.10
2023-03-30T23:21:37.118Z,26.10
2023-03-30T23:24:09.066Z,26.20
2023-03-30T23:26:38.065Z,26.20
2023-03-30T23:29:07.246Z,26.10
2023-03-30T23:31:36.422Z,26.10
2023-03-30T23:34:06.107Z,26.10
2023-03-30T23:36:36.104Z,26.20
2023-03-30T23:39:06.670Z,26.20
2023-03-30T23:41:35.668Z,26.20
2023-03-30T23:44:04.776Z,26.20
2023-03-30T23:46:33.951Z,26.30
2023-03-30T23:49:04.675Z,26.30
2023-03-30T23:51:33.862Z,26.30
2023-03-30T23:54:07.180Z,26.30
2023-03-30T23:56:37.626Z,26.30
2023-03-30T23:59:07.293Z,26.40
